createdAt,value
2018-09-12T00:01:45.998Z,3.13
2018-09-12T00:04:50.242Z,3.13
2018-09-12T00:07:54.453Z,3.60
2018-09-12T00:10:58.665Z,3.37
2018-09-12T00:14:02.884Z,3.47
2018-09-12T00:17:07.146Z,3.30
2018-09-12T00:20:11.385Z,3.53
2018-09-12T00:23:15.649Z,3.60
2018-09-12T00:26:19.894Z,3.57
2018-09-12T00:29:24.105Z,4.30
2018-09-12T00:32:28.349Z,4.10
2018-09-12T00:35:32.576Z,3.73
2018-09-12T00:38:36.833Z,3.70
2018-09-12T00:41:41.057Z,3.80
2018-09-12T00:44:45.281Z,3.83
2018-09-12T00:47:49.522Z,3.47
2018-09-12T00:50:53.749Z,3.70
2018-09-12T00:53:57.969Z,3.77
2018-09-12T00:57:02.214Z,4.00
2018-09-12T01:00:06.457Z,3.90
2018-09-12T01:03:10.721Z,3.83
2018-09-12T01:06:14.929Z,3.97
2018-09-12T01:09:19.181Z,3.60
2018-09-12T01:12:23.401Z,4.20
2018-09-12T01:15:27.637Z,3.37
2018-09-12T01:18:31.858Z,3.93
2018-09-12T01:21:36.097Z,4.60
2018-09-12T01:24:40.333Z,4.33
2018-09-12T01:27:48.105Z,4.20
2018-09-12T01:30:52.625Z,4.60
2018-09-12T01:33:56.844Z,3.50
2018-09-12T01:37:01.059Z,3.17
2018-09-12T01:40:05.473Z,3.37
2018-09-12T01:43:09.697Z,3.23
2018-09-12T01:46:13.929Z,4.07
2018-09-12T01:49:19.598Z,3.77
2018-09-12T01:52:23.804Z,3.37
2018-09-12T01:55:28.058Z,3.40
2018-09-12T01:58:32.298Z,3.57
2018-09-12T02:01:36.518Z,3.77
2018-09-12T02:04:40.713Z,2.67
2018-09-12T02:07:44.925Z,2.70
2018-09-12T02:10:49.173Z,3.07
2018-09-12T02:13:53.392Z,3.03
2018-09-12T02:16:57.619Z,3.20
2018-09-12T02:20:01.849Z,3.37
2018-09-12T02:23:06.093Z,3.90
2018-09-12T02:26:10.326Z,3.07
2018-09-12T02:29:14.544Z,3.33
2018-09-12T02:32:18.798Z,3.40
2018-09-12T02:35:23.019Z,3.50
2018-09-12T02:38:27.270Z,3.13
2018-09-12T02:41:31.490Z,2.67
2018-09-12T02:44:35.717Z,3.17
2018-09-12T02:47:40.601Z,3.23
2018-09-12T02:50:44.830Z,3.10
2018-09-12T02:53:49.053Z,2.87
2018-09-12T02:56:53.254Z,2.87
2018-09-12T02:59:57.513Z,2.60
2018-09-12T03:03:01.761Z,3.13
2018-09-12T03:06:06.157Z,3.37
2018-09-12T03:09:11.256Z,3.43
2018-09-12T03:12:15.893Z,2.77
2018-09-12T03:15:20.126Z,3.07
2018-09-12T03:18:24.362Z,2.50
2018-09-12T03:21:28.596Z,2.90
2018-09-12T03:24:32.870Z,2.73
2018-09-12T03:27:37.086Z,2.60
2018-09-12T03:30:41.325Z,3.23
2018-09-12T03:33:45.536Z,2.77
2018-09-12T03:36:49.775Z,2.97
2018-09-12T03:39:55.065Z,3.03
2018-09-12T03:42:59.277Z,3.10
2018-09-12T03:46:03.492Z,2.50
2018-09-12T03:49:07.726Z,2.97
2018-09-12T03:52:11.987Z,3.07
2018-09-12T03:55:16.161Z,3.17
2018-09-12T03:58:20.379Z,2.77
2018-09-12T04:01:24.592Z,4.63
2018-09-12T04:04:28.781Z,3.13
2018-09-12T04:07:33.022Z,5.33
2018-09-12T04:10:37.243Z,7.67
2018-09-12T04:13:41.456Z,15.57
2018-09-12T04:16:45.673Z,3.13
2018-09-12T04:19:49.901Z,3.13
2018-09-12T04:22:54.097Z,2.70
2018-09-12T04:25:58.327Z,2.80
2018-09-12T04:29:02.556Z,3.67
2018-09-12T04:32:06.807Z,2.73
2018-09-12T04:35:11.013Z,2.97
2018-09-12T04:38:15.234Z,2.83
2018-09-12T04:41:19.458Z,2.90
2018-09-12T04:44:23.656Z,3.00
2018-09-12T04:47:27.876Z,3.47
2018-09-12T04:50:32.053Z,2.77
2018-09-12T04:53:36.269Z,2.67
2018-09-12T04:56:40.489Z,2.80
2018-09-12T04:59:44.785Z,3.20
2018-09-12T05:02:48.941Z,3.10
2018-09-12T05:05:53.163Z,3.07
2018-09-12T05:08:57.362Z,3.17
2018-09-12T05:12:01.609Z,3.23
2018-09-12T05:15:05.888Z,3.20
2018-09-12T05:18:10.120Z,3.07
2018-09-12T05:21:14.922Z,3.30
2018-09-12T05:24:19.141Z,2.40
2018-09-12T05:27:23.419Z,4.37
2018-09-12T05:30:27.610Z,2.90
2018-09-12T05:33:31.867Z,3.07
2018-09-12T05:36:36.094Z,2.80
2018-09-12T05:39:40.320Z,2.83
2018-09-12T05:42:44.501Z,3.47
2018-09-12T05:45:48.733Z,2.57
2018-09-12T05:48:52.917Z,2.53
2018-09-12T05:51:57.122Z,3.30
2018-09-12T05:55:01.347Z,3.00
2018-09-12T05:58:05.559Z,2.67
2018-09-12T06:01:09.766Z,3.07
2018-09-12T06:04:13.957Z,3.20
2018-09-12T06:07:18.286Z,2.87
2018-09-12T06:10:22.434Z,2.57
2018-09-12T06:13:26.658Z,3.00
2018-09-12T06:16:30.844Z,2.20
2018-09-12T06:19:35.081Z,2.30
2018-09-12T06:22:39.277Z,2.10
2018-09-12T06:25:43.494Z,1.70
2018-09-12T06:28:47.682Z,2.10
2018-09-12T06:31:51.917Z,1.50
2018-09-12T06:34:56.113Z,1.53
2018-09-12T06:38:00.337Z,2.17
2018-09-12T06:41:04.544Z,1.87
2018-09-12T06:44:08.939Z,1.40
2018-09-12T06:47:13.785Z,1.93
2018-09-12T06:50:18.004Z,1.93
2018-09-12T06:53:22.209Z,1.70
2018-09-12T06:56:26.457Z,2.17
2018-09-12T06:59:30.624Z,1.93
2018-09-12T07:02:34.849Z,1.53
2018-09-12T07:05:39.069Z,1.53
2018-09-12T07:08:43.293Z,1.93
2018-09-12T07:11:47.517Z,1.67
2018-09-12T07:14:51.707Z,1.53
2018-09-12T07:17:55.925Z,1.97
2018-09-12T07:21:00.145Z,2.20
2018-09-12T07:24:04.352Z,2.33
2018-09-12T07:27:08.570Z,2.30
2018-09-12T07:30:12.901Z,2.30
2018-09-12T07:33:17.114Z,2.87
2018-09-12T07:36:21.360Z,2.30
2018-09-12T07:39:25.565Z,2.73
2018-09-12T07:42:29.778Z,2.20
2018-09-12T07:45:34.041Z,2.27
2018-09-12T07:48:38.264Z,2.27
2018-09-12T07:51:42.494Z,2.40
2018-09-12T07:54:46.723Z,2.33
2018-09-12T07:57:50.960Z,2.47
2018-09-12T08:00:55.170Z,2.73
2018-09-12T08:03:59.378Z,2.43
2018-09-12T08:07:03.592Z,3.03
2018-09-12T08:10:08.129Z,2.63
2018-09-12T08:13:12.371Z,2.70
2018-09-12T08:16:16.605Z,2.20
2018-09-12T08:19:20.839Z,2.50
2018-09-12T08:22:25.084Z,2.37
2018-09-12T08:25:29.284Z,2.30
2018-09-12T08:28:33.616Z,2.33
2018-09-12T08:31:37.825Z,2.40
2018-09-12T08:34:42.064Z,2.27
2018-09-12T08:37:46.382Z,2.80
2018-09-12T08:40:50.613Z,1.87
2018-09-12T08:43:54.801Z,2.47
2018-09-12T08:46:59.036Z,2.00
2018-09-12T08:50:03.263Z,1.80
2018-09-12T08:53:07.521Z,1.83
2018-09-12T08:56:11.725Z,1.83
2018-09-12T08:59:15.956Z,1.60
2018-09-12T09:02:20.165Z,2.33
2018-09-12T09:05:24.422Z,2.43
2018-09-12T09:08:28.670Z,1.97
2018-09-12T09:11:32.885Z,1.90
2018-09-12T09:14:37.141Z,1.80
2018-09-12T09:17:41.371Z,2.10
2018-09-12T09:20:45.660Z,1.73
2018-09-12T09:23:49.881Z,1.83
2018-09-12T09:26:54.100Z,2.33
2018-09-12T09:29:59.307Z,1.70
2018-09-12T09:33:03.525Z,2.03
2018-09-12T09:36:07.426Z,1.67
2018-09-12T09:39:12.540Z,1.67
2018-09-12T09:42:16.765Z,2.00
2018-09-12T09:45:20.995Z,1.80
2018-09-12T09:48:25.238Z,1.63
2018-09-12T09:51:29.415Z,1.80
2018-09-12T09:54:33.714Z,2.20
2018-09-12T09:57:38.576Z,2.20
2018-09-12T10:00:47.836Z,1.80
2018-09-12T10:03:57.298Z,1.40
2018-09-12T10:07:06.818Z,1.53
2018-09-12T10:10:11.034Z,1.63
2018-09-12T10:13:15.254Z,1.17
2018-09-12T10:16:19.954Z,1.80
2018-09-12T10:19:24.161Z,2.83
2018-09-12T10:22:28.364Z,12.03
2018-09-12T10:25:32.628Z,3.27
2018-09-12T10:28:37.013Z,2.03
2018-09-12T10:31:41.243Z,5.70
2018-09-12T10:34:45.669Z,10.97
2018-09-12T10:37:49.885Z,7.93
2018-09-12T10:40:54.160Z,6.73
2018-09-12T10:43:58.376Z,9.63
2018-09-12T10:47:02.596Z,4.93
2018-09-12T10:50:06.808Z,2.27
2018-09-12T10:53:11.034Z,4.50
2018-09-12T10:56:15.264Z,3.87
2018-09-12T10:59:19.494Z,1.43
2018-09-12T11:02:23.698Z,5.03
2018-09-12T11:05:27.946Z,3.07
2018-09-12T11:08:32.168Z,67.27
2018-09-12T11:11:36.392Z,31.33
2018-09-12T11:14:40.616Z,15.93
2018-09-12T11:17:44.849Z,12.27
2018-09-12T11:20:49.057Z,3.70
2018-09-12T11:23:53.331Z,2.87
2018-09-12T11:26:57.551Z,3.97
2018-09-12T11:30:01.764Z,3.83
2018-09-12T11:33:05.989Z,3.00
2018-09-12T11:36:10.233Z,1.50
2018-09-12T11:39:14.453Z,1.40
2018-09-12T11:42:18.685Z,1.10
2018-09-12T11:45:22.899Z,1.10
2018-09-12T11:48:27.124Z,1.47
2018-09-12T11:51:31.509Z,2.00
2018-09-12T11:54:35.729Z,2.03
2018-09-12T11:57:39.974Z,1.70
2018-09-12T12:00:44.192Z,1.37
2018-09-12T12:03:48.613Z,1.90
2018-09-12T12:06:52.809Z,2.07
2018-09-12T12:09:57.029Z,1.63
2018-09-12T12:13:01.249Z,1.80
2018-09-12T12:16:05.470Z,2.40
2018-09-12T12:19:09.667Z,1.23
2018-09-12T12:22:14.066Z,1.07
2018-09-12T12:25:18.288Z,1.20
2018-09-12T12:28:22.513Z,1.40
2018-09-12T12:31:26.704Z,1.90
2018-09-12T12:34:30.937Z,1.30
2018-09-12T12:37:35.153Z,1.60
2018-09-12T12:40:39.364Z,0.83
2018-09-12T12:43:43.594Z,1.00
2018-09-12T12:46:47.909Z,0.97
2018-09-12T12:49:52.125Z,1.13
2018-09-12T12:52:56.370Z,1.20
2018-09-12T12:56:00.582Z,1.33
2018-09-12T12:59:05.125Z,1.40
2018-09-12T13:02:09.342Z,1.20
2018-09-12T13:05:13.616Z,1.33
2018-09-12T13:08:17.873Z,1.07
2018-09-12T13:11:22.107Z,1.23
2018-09-12T13:14:26.339Z,1.23
2018-09-12T13:17:30.742Z,1.40
2018-09-12T13:20:34.948Z,1.20
2018-09-12T13:23:39.140Z,1.00
2018-09-12T13:26:43.330Z,1.37
2018-09-12T13:29:47.557Z,1.37
2018-09-12T13:32:51.755Z,1.47
2018-09-12T13:35:56.000Z,1.43
2018-09-12T13:39:00.225Z,1.57
2018-09-12T13:42:04.445Z,1.60
2018-09-12T13:45:08.699Z,1.00
2018-09-12T13:48:12.905Z,1.50
2018-09-12T13:51:17.132Z,1.20
2018-09-12T13:54:21.333Z,1.23
2018-09-12T13:57:25.557Z,1.30
2018-09-12T14:00:31.631Z,1.50
2018-09-12T14:03:35.861Z,1.13
2018-09-12T14:06:40.044Z,1.23
2018-09-12T14:09:44.261Z,1.40
2018-09-12T14:12:48.469Z,1.20
2018-09-12T14:15:52.673Z,1.33
2018-09-12T14:18:56.884Z,1.70
2018-09-12T14:22:01.109Z,1.40
2018-09-12T14:25:05.365Z,3.60
2018-09-12T14:28:09.679Z,4.83
2018-09-12T14:31:13.885Z,2.70
2018-09-12T14:34:18.081Z,3.13
2018-09-12T14:37:22.312Z,3.30
2018-09-12T14:40:26.545Z,4.90
2018-09-12T14:43:30.766Z,3.00
2018-09-12T14:46:34.956Z,21.37
2018-09-12T14:49:39.168Z,8.57
2018-09-12T14:52:43.369Z,7.20
2018-09-12T14:55:47.581Z,10.00
2018-09-12T14:58:51.777Z,5.73
2018-09-12T15:01:55.985Z,5.80
2018-09-12T15:05:00.273Z,3.00
2018-09-12T15:08:04.446Z,4.77
2018-09-12T15:11:08.654Z,2.53
2018-09-12T15:14:12.860Z,3.63
2018-09-12T15:17:17.062Z,3.93
2018-09-12T15:20:21.260Z,4.13
2018-09-12T15:23:25.477Z,1.67
2018-09-12T15:26:29.680Z,5.83
2018-09-12T15:29:33.881Z,4.37
2018-09-12T15:32:38.151Z,2.90
2018-09-12T15:35:42.361Z,5.60
2018-09-12T15:38:46.557Z,2.50
2018-09-12T15:41:50.811Z,1.90
2018-09-12T15:44:55.007Z,2.20
2018-09-12T15:47:59.257Z,2.00
2018-09-12T15:51:03.488Z,1.90
2018-09-12T15:54:07.733Z,2.43
2018-09-12T15:57:12.001Z,2.03
2018-09-12T16:00:16.253Z,2.50
2018-09-12T16:03:20.489Z,2.30
2018-09-12T16:06:24.745Z,2.90
2018-09-12T16:09:28.962Z,2.70
2018-09-12T16:12:33.180Z,6.53
2018-09-12T16:15:37.411Z,4.80
2018-09-12T16:18:42.450Z,2.93
2018-09-12T16:21:46.677Z,4.23
2018-09-12T16:24:50.896Z,4.00
2018-09-12T16:27:55.145Z,5.27
2018-09-12T16:30:59.362Z,9.37
2018-09-12T16:34:03.604Z,10.37
2018-09-12T16:37:07.836Z,14.83
2018-09-12T16:40:12.298Z,17.67
2018-09-12T16:43:16.521Z,13.70
2018-09-12T16:46:20.789Z,8.23
2018-09-12T16:49:24.997Z,6.70
2018-09-12T16:52:29.238Z,8.53
2018-09-12T16:55:33.466Z,6.13
2018-09-12T16:58:37.719Z,10.07
2018-09-12T17:01:41.940Z,7.33
2018-09-12T17:04:46.168Z,20.33
2018-09-12T17:07:50.406Z,16.37
2018-09-12T17:10:54.586Z,7.00
2018-09-12T17:13:58.818Z,13.73
2018-09-12T17:17:03.146Z,22.77
2018-09-12T17:20:07.721Z,14.60
2018-09-12T17:23:11.903Z,31.50
2018-09-12T17:26:16.150Z,20.70
2018-09-12T17:29:20.367Z,26.17
2018-09-12T17:32:24.658Z,25.30
2018-09-12T17:35:29.328Z,26.40
2018-09-12T17:38:33.569Z,19.70
2018-09-12T17:41:37.764Z,16.07
2018-09-12T17:44:42.027Z,10.17
2018-09-12T17:47:46.249Z,8.20
2018-09-12T17:50:50.481Z,10.93
2018-09-12T17:53:54.685Z,9.10
2018-09-12T17:56:58.880Z,6.53
2018-09-12T18:00:03.129Z,13.30
2018-09-12T18:03:07.506Z,4.70
2018-09-12T18:06:11.745Z,4.50
2018-09-12T18:09:15.962Z,8.07
2018-09-12T18:12:20.244Z,16.83
2018-09-12T18:15:24.457Z,11.03
2018-09-12T18:18:28.703Z,16.73
2018-09-12T18:21:32.909Z,10.63
2018-09-12T18:24:37.228Z,18.80
2018-09-12T18:27:41.441Z,12.50
2018-09-12T18:30:45.677Z,9.60
2018-09-12T18:33:49.905Z,6.23
2018-09-12T18:36:54.121Z,5.47
2018-09-12T18:39:58.323Z,9.20
2018-09-12T18:43:02.641Z,6.07
2018-09-12T18:46:06.817Z,5.67
2018-09-12T18:49:11.068Z,19.33
2018-09-12T18:52:15.298Z,10.77
2018-09-12T18:55:19.562Z,31.37
2018-09-12T18:58:23.772Z,7.27
2018-09-12T19:01:28.027Z,15.10
2018-09-12T19:04:32.246Z,43.77
2018-09-12T19:07:36.477Z,12.30
2018-09-12T19:10:40.705Z,39.03
2018-09-12T19:13:46.115Z,24.37
2018-09-12T19:16:50.415Z,31.60
2018-09-12T19:19:54.849Z,31.93
2018-09-12T19:22:59.062Z,9.60
2018-09-12T19:26:03.285Z,30.77
2018-09-12T19:29:07.553Z,48.60
2018-09-12T19:32:11.825Z,9.67
2018-09-12T19:35:16.040Z,6.90
2018-09-12T19:38:20.285Z,3.10
2018-09-12T19:41:24.525Z,2.77
2018-09-12T19:44:28.741Z,3.40
2018-09-12T19:47:32.986Z,5.23
2018-09-12T19:50:38.014Z,3.73
2018-09-12T19:53:42.404Z,3.70
2018-09-12T19:56:46.625Z,8.60
2018-09-12T19:59:51.717Z,9.40
2018-09-12T20:02:55.916Z,13.63
2018-09-12T20:06:00.326Z,8.83
2018-09-12T20:09:06.479Z,9.93
2018-09-12T20:12:10.696Z,5.30
2018-09-12T20:15:14.933Z,6.80
2018-09-12T20:18:19.192Z,4.17
2018-09-12T20:21:23.413Z,3.13
2018-09-12T20:24:27.635Z,3.27
2018-09-12T20:27:33.004Z,5.97
2018-09-12T20:30:37.248Z,5.53
2018-09-12T20:33:41.444Z,7.60
2018-09-12T20:36:45.674Z,15.37
2018-09-12T20:39:49.900Z,13.47
2018-09-12T20:42:54.138Z,7.63
2018-09-12T20:45:58.357Z,5.17
2018-09-12T20:49:02.647Z,3.93
2018-09-12T20:52:06.876Z,4.33
2018-09-12T20:55:11.096Z,2.07
2018-09-12T20:58:15.322Z,2.70
2018-09-12T21:01:19.537Z,3.10
2018-09-12T21:04:23.773Z,2.80
2018-09-12T21:07:27.988Z,2.33
2018-09-12T21:10:32.230Z,3.17
2018-09-12T21:13:36.460Z,2.37
2018-09-12T21:16:40.698Z,2.00
2018-09-12T21:19:44.902Z,2.33
2018-09-12T21:22:49.569Z,2.53
2018-09-12T21:25:53.812Z,2.50
2018-09-12T21:28:58.314Z,2.33
2018-09-12T21:32:02.529Z,2.73
2018-09-12T21:35:06.748Z,2.53
2018-09-12T21:38:10.948Z,2.00
2018-09-12T21:41:15.191Z,2.47
2018-09-12T21:44:19.425Z,2.70
2018-09-12T21:47:23.687Z,2.23
2018-09-12T21:50:27.912Z,2.30
2018-09-12T21:53:32.173Z,1.90
2018-09-12T21:56:36.399Z,2.70
2018-09-12T21:59:40.660Z,2.70
2018-09-12T22:02:44.896Z,2.83
2018-09-12T22:05:49.144Z,2.37
2018-09-12T22:08:53.372Z,2.60
2018-09-12T22:11:57.633Z,2.80
2018-09-12T22:15:01.878Z,2.13
2018-09-12T22:18:06.144Z,3.07
2018-09-12T22:21:10.397Z,1.90
2018-09-12T22:24:14.630Z,2.27
2018-09-12T22:27:18.871Z,2.20
2018-09-12T22:30:23.113Z,2.00
2018-09-12T22:33:27.356Z,2.80
2018-09-12T22:36:31.585Z,2.50
2018-09-12T22:39:35.820Z,2.37
2018-09-12T22:42:40.040Z,1.93
2018-09-12T22:45:44.278Z,2.37
2018-09-12T22:48:48.496Z,2.23
2018-09-12T22:51:52.717Z,2.70
2018-09-12T22:54:56.930Z,2.60
2018-09-12T22:58:01.194Z,1.77
2018-09-12T23:01:05.404Z,2.23
2018-09-12T23:04:09.645Z,2.37
2018-09-12T23:07:13.857Z,1.80
2018-09-12T23:10:18.110Z,2.20
2018-09-12T23:13:22.304Z,2.60
2018-09-12T23:16:26.547Z,2.23
2018-09-12T23:19:30.782Z,2.93
2018-09-12T23:22:35.050Z,2.20
2018-09-12T23:25:39.270Z,2.20
2018-09-12T23:28:43.499Z,2.20
2018-09-12T23:31:47.728Z,2.10
2018-09-12T23:34:51.965Z,2.40
2018-09-12T23:37:56.225Z,1.70
2018-09-12T23:41:00.425Z,2.73
2018-09-12T23:44:04.677Z,1.90
2018-09-12T23:47:08.922Z,2.57
2018-09-12T23:50:13.157Z,2.43
2018-09-12T23:53:17.393Z,1.97
2018-09-12T23:56:21.620Z,2.17
2018-09-12T23:59:25.865Z,2.37
